sensor_id;sensor_type;location;lat;lon;timestamp;temperature;humidity
26595;DHT22;14238;49.496;8.154;2024-01-07T00:01:30;3.60;99.90
26595;DHT22;14238;49.496;8.154;2024-01-07T00:03:56;3.60;99.90
26595;DHT22;14238;49.496;8.154;2024-01-07T00:06:21;3.50;99.90
26595;DHT22;14238;49.496;8.154;2024-01-07T00:08:47;3.60;99.90
26595;DHT22;14238;49.496;8.154;2024-01-07T00:11:13;3.60;99.90
26595;DHT22;14238;49.496;8.154;2024-01-07T00:13:38;3.60;99.90
26595;DHT22;14238;49.496;8.154;2024-01-07T00:16:04;3.70;99.90
26595;DHT22;14238;49.496;8.154;2024-01-07T00:18:30;3.60;99.90
26595;DHT22;14238;49.496;8.154;2024-01-07T00:20:55;3.60;99.90
26595;DHT22;14238;49.496;8.154;2024-01-07T00:23:21;3.60;99.90
26595;DHT22;14238;49.496;8.154;2024-01-07T00:25:47;3.60;99.90
26595;DHT22;14238;49.496;8.154;2024-01-07T00:28:12;3.60;99.90
26595;DHT22;14238;49.496;8.154;2024-01-07T00:30:38;3.60;99.90
26595;DHT22;14238;49.496;8.154;2024-01-07T00:33:04;3.60;99.90
26595;DHT22;14238;49.496;8.154;2024-01-07T00:35:29;3.50;99.90
26595;DHT22;14238;49.496;8.154;2024-01-07T00:37:55;3.50;99.90
26595;DHT22;14238;49.496;8.154;2024-01-07T00:40:22;3.50;99.90
26595;DHT22;14238;49.496;8.154;2024-01-07T00:42:48;3.50;99.90
26595;DHT22;14238;49.496;8.154;2024-01-07T00:45:13;3.50;99.90
26595;DHT22;14238;49.496;8.154;2024-01-07T00:47:39;3.50;99.90
26595;DHT22;14238;49.496;8.154;2024-01-07T00:50:04;3.50;99.90
26595;DHT22;14238;49.496;8.154;2024-01-07T00:52:30;3.50;99.90
26595;DHT22;14238;49.496;8.154;2024-01-07T00:54:56;3.50;99.90
26595;DHT22;14238;49.496;8.154;2024-01-07T00:57:22;3.60;99.90
26595;DHT22;14238;49.496;8.154;2024-01-07T00:59:47;3.60;99.90
26595;DHT22;14238;49.496;8.154;2024-01-07T01:02:13;3.50;99.90
26595;DHT22;14238;49.496;8.154;2024-01-07T01:04:39;3.50;99.90
26595;DHT22;14238;49.496;8.154;2024-01-07T01:07:05;3.50;99.90
26595;DHT22;14238;49.496;8.154;2024-01-07T01:09:32;3.50;99.90
26595;DHT22;14238;49.496;8.154;2024-01-07T01:11:58;3.40;99.90
26595;DHT22;14238;49.496;8.154;2024-01-07T01:14:23;3.40;99.90
26595;DHT22;14238;49.496;8.154;2024-01-07T01:16:49;3.50;99.90
26595;DHT22;14238;49.496;8.154;2024-01-07T01:19:15;3.40;99.90
26595;DHT22;14238;49.496;8.154;2024-01-07T01:21:40;3.40;99.90
26595;DHT22;14238;49.496;8.154;2024-01-07T01:24:06;3.40;99.90
26595;DHT22;14238;49.496;8.154;2024-01-07T01:26:31;3.40;99.90
26595;DHT22;14238;49.496;8.154;2024-01-07T01:28:57;3.40;99.90
26595;DHT22;14238;49.496;8.154;2024-01-07T01:31:22;3.40;99.90
26595;DHT22;14238;49.496;8.154;2024-01-07T01:33:48;3.50;99.90
26595;DHT22;14238;49.496;8.154;2024-01-07T01:36:13;3.40;99.90
26595;DHT22;14238;49.496;8.154;2024-01-07T01:38:40;3.40;99.90
26595;DHT22;14238;49.496;8.154;2024-01-07T01:41:06;3.50;99.90
26595;DHT22;14238;49.496;8.154;2024-01-07T01:43:31;3.40;99.90
26595;DHT22;14238;49.496;8.154;2024-01-07T01:45:58;3.40;99.90
26595;DHT22;14238;49.496;8.154;2024-01-07T01:48:25;3.40;99.90
26595;DHT22;14238;49.496;8.154;2024-01-07T01:50:53;3.40;99.90
26595;DHT22;14238;49.496;8.154;2024-01-07T01:53:19;3.40;99.90
26595;DHT22;14238;49.496;8.154;2024-01-07T01:55:45;3.40;99.90
26595;DHT22;14238;49.496;8.154;2024-01-07T01:58:13;3.40;99.90
26595;DHT22;14238;49.496;8.154;2024-01-07T02:00:39;3.40;99.90
26595;DHT22;14238;49.496;8.154;2024-01-07T02:03:05;3.30;99.90
26595;DHT22;14238;49.496;8.154;2024-01-07T02:05:31;3.30;99.90
26595;DHT22;14238;49.496;8.154;2024-01-07T02:07:57;3.40;99.90
26595;DHT22;14238;49.496;8.154;2024-01-07T02:10:23;3.30;99.90
26595;DHT22;14238;49.496;8.154;2024-01-07T02:12:48;3.40;99.90
26595;DHT22;14238;49.496;8.154;2024-01-07T02:15:15;3.40;99.90
26595;DHT22;14238;49.496;8.154;2024-01-07T02:17:40;3.30;99.90
26595;DHT22;14238;49.496;8.154;2024-01-07T02:20:06;3.30;99.90
26595;DHT22;14238;49.496;8.154;2024-01-07T02:22:32;3.40;99.90
26595;DHT22;14238;49.496;8.154;2024-01-07T02:24:58;3.30;99.90
26595;DHT22;14238;49.496;8.154;2024-01-07T02:27:23;3.30;99.90
26595;DHT22;14238;49.496;8.154;2024-01-07T02:29:49;3.30;99.90
26595;DHT22;14238;49.496;8.154;2024-01-07T02:32:14;3.20;99.90
26595;DHT22;14238;49.496;8.154;2024-01-07T02:34:40;3.20;99.90
26595;DHT22;14238;49.496;8.154;2024-01-07T02:37:05;3.20;99.90
26595;DHT22;14238;49.496;8.154;2024-01-07T02:39:31;3.30;99.90
26595;DHT22;14238;49.496;8.154;2024-01-07T02:41:56;3.30;99.90
26595;DHT22;14238;49.496;8.154;2024-01-07T02:44:22;3.20;99.90
26595;DHT22;14238;49.496;8.154;2024-01-07T02:46:47;3.20;99.90
26595;DHT22;14238;49.496;8.154;2024-01-07T02:49:13;3.20;99.90
26595;DHT22;14238;49.496;8.154;2024-01-07T02:51:38;3.30;99.90
26595;DHT22;14238;49.496;8.154;2024-01-07T02:54:04;3.20;99.90
26595;DHT22;14238;49.496;8.154;2024-01-07T02:56:30;3.20;99.90
26595;DHT22;14238;49.496;8.154;2024-01-07T02:58:55;3.20;99.90
26595;DHT22;14238;49.496;8.154;2024-01-07T03:01:24;3.30;99.90
26595;DHT22;14238;49.496;8.154;2024-01-07T03:03:50;3.30;99.90
26595;DHT22;14238;49.496;8.154;2024-01-07T03:06:16;3.30;99.90
26595;DHT22;14238;49.496;8.154;2024-01-07T03:11:08;3.30;99.90
26595;DHT22;14238;49.496;8.154;2024-01-07T03:13:34;3.20;99.90
26595;DHT22;14238;49.496;8.154;2024-01-07T03:15:59;3.60;99.90
26595;DHT22;14238;49.496;8.154;2024-01-07T03:18:26;3.20;99.90
26595;DHT22;14238;49.496;8.154;2024-01-07T03:23:18;3.20;99.90
26595;DHT22;14238;49.496;8.154;2024-01-07T03:25:44;3.20;99.90
26595;DHT22;14238;49.496;8.154;2024-01-07T03:28:11;3.00;99.90
26595;DHT22;14238;49.496;8.154;2024-01-07T03:33:05;3.10;99.90
26595;DHT22;14238;49.496;8.154;2024-01-07T03:35:31;3.10;99.90
26595;DHT22;14238;49.496;8.154;2024-01-07T03:37:56;3.20;99.90
26595;DHT22;14238;49.496;8.154;2024-01-07T03:40:24;3.20;99.90
26595;DHT22;14238;49.496;8.154;2024-01-07T03:42:51;3.30;99.90
26595;DHT22;14238;49.496;8.154;2024-01-07T03:45:17;3.20;99.90
26595;DHT22;14238;49.496;8.154;2024-01-07T03:47:42;3.20;99.90
26595;DHT22;14238;49.496;8.154;2024-01-07T03:52:34;3.00;99.90
26595;DHT22;14238;49.496;8.154;2024-01-07T03:55:00;3.30;99.90
26595;DHT22;14238;49.496;8.154;2024-01-07T03:57:26;3.00;99.90
26595;DHT22;14238;49.496;8.154;2024-01-07T04:04:47;3.20;99.90
26595;DHT22;14238;49.496;8.154;2024-01-07T04:07:15;3.20;99.90
26595;DHT22;14238;49.496;8.154;2024-01-07T04:09:44;3.10;99.90
26595;DHT22;14238;49.496;8.154;2024-01-07T04:12:10;3.10;99.90
26595;DHT22;14238;49.496;8.154;2024-01-07T04:14:35;3.30;99.90
26595;DHT22;14238;49.496;8.154;2024-01-07T04:17:01;3.30;99.90
26595;DHT22;14238;49.496;8.154;2024-01-07T04:19:27;3.20;99.90
26595;DHT22;14238;49.496;8.154;2024-01-07T04:21:52;3.70;99.90
26595;DHT22;14238;49.496;8.154;2024-01-07T04:24:18;3.30;99.90
26595;DHT22;14238;49.496;8.154;2024-01-07T04:26:43;3.20;99.90
26595;DHT22;14238;49.496;8.154;2024-01-07T04:29:09;3.20;99.90
26595;DHT22;14238;49.496;8.154;2024-01-07T04:31:34;3.20;99.90
26595;DHT22;14238;49.496;8.154;2024-01-07T04:34:00;3.10;99.90
26595;DHT22;14238;49.496;8.154;2024-01-07T04:36:25;3.20;99.90
26595;DHT22;14238;49.496;8.154;2024-01-07T04:38:51;3.10;99.90
26595;DHT22;14238;49.496;8.154;2024-01-07T04:43:43;3.20;99.90
26595;DHT22;14238;49.496;8.154;2024-01-07T04:46:08;3.20;99.90
26595;DHT22;14238;49.496;8.154;2024-01-07T04:48:36;3.20;99.90
26595;DHT22;14238;49.496;8.154;2024-01-07T04:51:01;3.30;99.90
26595;DHT22;14238;49.496;8.154;2024-01-07T04:53:27;3.20;99.90
26595;DHT22;14238;49.496;8.154;2024-01-07T04:55:53;3.20;99.90
26595;DHT22;14238;49.496;8.154;2024-01-07T04:58:18;3.20;99.90
26595;DHT22;14238;49.496;8.154;2024-01-07T05:00:44;3.20;99.90
26595;DHT22;14238;49.496;8.154;2024-01-07T05:03:09;3.20;99.90
26595;DHT22;14238;49.496;8.154;2024-01-07T05:05:35;3.20;99.90
26595;DHT22;14238;49.496;8.154;2024-01-07T05:08:02;3.20;99.90
26595;DHT22;14238;49.496;8.154;2024-01-07T05:10:27;3.20;99.90
26595;DHT22;14238;49.496;8.154;2024-01-07T05:12:53;3.20;99.90
26595;DHT22;14238;49.496;8.154;2024-01-07T05:15:18;3.30;99.90
26595;DHT22;14238;49.496;8.154;2024-01-07T05:17:44;3.30;99.90
26595;DHT22;14238;49.496;8.154;2024-01-07T05:20:10;3.30;99.90
26595;DHT22;14238;49.496;8.154;2024-01-07T05:22:36;3.20;99.90
26595;DHT22;14238;49.496;8.154;2024-01-07T05:25:02;3.20;99.90
26595;DHT22;14238;49.496;8.154;2024-01-07T05:27:27;3.30;99.90
26595;DHT22;14238;49.496;8.154;2024-01-07T05:29:53;3.20;99.90
26595;DHT22;14238;49.496;8.154;2024-01-07T05:32:20;3.20;99.90
26595;DHT22;14238;49.496;8.154;2024-01-07T05:34:46;3.20;99.90
26595;DHT22;14238;49.496;8.154;2024-01-07T05:37:11;3.30;99.90
26595;DHT22;14238;49.496;8.154;2024-01-07T05:39:37;3.30;99.90
26595;DHT22;14238;49.496;8.154;2024-01-07T05:42:02;3.20;99.90
26595;DHT22;14238;49.496;8.154;2024-01-07T05:44:28;3.20;99.90
26595;DHT22;14238;49.496;8.154;2024-01-07T05:46:54;3.10;99.90
26595;DHT22;14238;49.496;8.154;2024-01-07T05:49:19;3.20;99.90
26595;DHT22;14238;49.496;8.154;2024-01-07T05:51:45;3.10;99.90
26595;DHT22;14238;49.496;8.154;2024-01-07T05:54:10;3.10;99.90
26595;DHT22;14238;49.496;8.154;2024-01-07T05:56:39;3.10;99.90
26595;DHT22;14238;49.496;8.154;2024-01-07T05:59:06;3.20;99.90
26595;DHT22;14238;49.496;8.154;2024-01-07T06:01:31;3.20;99.90
26595;DHT22;14238;49.496;8.154;2024-01-07T06:03:57;3.20;99.90
26595;DHT22;14238;49.496;8.154;2024-01-07T06:06:22;3.20;99.90
26595;DHT22;14238;49.496;8.154;2024-01-07T06:08:48;3.20;99.90
26595;DHT22;14238;49.496;8.154;2024-01-07T06:11:13;3.30;99.90
26595;DHT22;14238;49.496;8.154;2024-01-07T06:13:44;3.30;99.90
26595;DHT22;14238;49.496;8.154;2024-01-07T06:16:10;3.20;99.90
26595;DHT22;14238;49.496;8.154;2024-01-07T06:18:35;3.20;99.90
26595;DHT22;14238;49.496;8.154;2024-01-07T06:21:01;3.20;99.90
26595;DHT22;14238;49.496;8.154;2024-01-07T06:23:26;3.20;99.90
26595;DHT22;14238;49.496;8.154;2024-01-07T06:25:52;3.20;99.90
26595;DHT22;14238;49.496;8.154;2024-01-07T06:28:17;3.20;99.90
26595;DHT22;14238;49.496;8.154;2024-01-07T06:30:43;3.30;99.90
26595;DHT22;14238;49.496;8.154;2024-01-07T06:33:08;3.30;99.90
26595;DHT22;14238;49.496;8.154;2024-01-07T06:35:34;3.30;99.90
26595;DHT22;14238;49.496;8.154;2024-01-07T06:40:26;3.30;99.90
26595;DHT22;14238;49.496;8.154;2024-01-07T06:42:51;3.30;99.90
26595;DHT22;14238;49.496;8.154;2024-01-07T06:45:17;3.30;99.90
26595;DHT22;14238;49.496;8.154;2024-01-07T06:47:43;3.30;99.90
26595;DHT22;14238;49.496;8.154;2024-01-07T06:50:09;3.50;99.90
26595;DHT22;14238;49.496;8.154;2024-01-07T06:52:35;3.40;99.90
26595;DHT22;14238;49.496;8.154;2024-01-07T06:55:01;3.40;99.90
26595;DHT22;14238;49.496;8.154;2024-01-07T06:57:26;3.30;99.90
26595;DHT22;14238;49.496;8.154;2024-01-07T06:59:52;3.30;99.90
26595;DHT22;14238;49.496;8.154;2024-01-07T07:02:17;3.30;99.90
26595;DHT22;14238;49.496;8.154;2024-01-07T07:04:43;3.40;99.90
26595;DHT22;14238;49.496;8.154;2024-01-07T07:07:08;3.50;99.90
26595;DHT22;14238;49.496;8.154;2024-01-07T07:09:34;3.40;99.90
26595;DHT22;14238;49.496;8.154;2024-01-07T07:12:00;3.40;99.90
26595;DHT22;14238;49.496;8.154;2024-01-07T07:14:25;3.30;99.90
26595;DHT22;14238;49.496;8.154;2024-01-07T07:16:51;3.30;99.90
26595;DHT22;14238;49.496;8.154;2024-01-07T07:19:16;3.40;99.90
26595;DHT22;14238;49.496;8.154;2024-01-07T07:21:43;3.40;99.90
26595;DHT22;14238;49.496;8.154;2024-01-07T07:24:09;3.40;99.90
26595;DHT22;14238;49.496;8.154;2024-01-07T07:26:35;3.40;99.90
26595;DHT22;14238;49.496;8.154;2024-01-07T07:29:01;3.40;99.90
26595;DHT22;14238;49.496;8.154;2024-01-07T07:31:27;3.40;99.90
26595;DHT22;14238;49.496;8.154;2024-01-07T07:33:54;3.40;99.90
26595;DHT22;14238;49.496;8.154;2024-01-07T07:36:19;3.40;99.90
26595;DHT22;14238;49.496;8.154;2024-01-07T07:38:45;3.50;99.90
26595;DHT22;14238;49.496;8.154;2024-01-07T07:41:10;3.50;99.90
26595;DHT22;14238;49.496;8.154;2024-01-07T07:43:36;3.50;99.90
26595;DHT22;14238;49.496;8.154;2024-01-07T07:46:01;3.50;99.90
26595;DHT22;14238;49.496;8.154;2024-01-07T07:48:28;3.50;99.90
26595;DHT22;14238;49.496;8.154;2024-01-07T07:50:54;3.50;99.90
26595;DHT22;14238;49.496;8.154;2024-01-07T07:53:20;3.50;99.90
26595;DHT22;14238;49.496;8.154;2024-01-07T07:55:45;3.50;99.90
26595;DHT22;14238;49.496;8.154;2024-01-07T08:03:08;3.30;99.90
26595;DHT22;14238;49.496;8.154;2024-01-07T08:17:51;3.50;99.90
26595;DHT22;14238;49.496;8.154;2024-01-07T08:20:17;3.50;99.90
26595;DHT22;14238;49.496;8.154;2024-01-07T08:22:42;3.50;99.90
26595;DHT22;14238;49.496;8.154;2024-01-07T08:25:08;3.50;99.90
26595;DHT22;14238;49.496;8.154;2024-01-07T08:27:34;3.30;99.90
26595;DHT22;14238;49.496;8.154;2024-01-07T08:30:01;3.40;99.90
26595;DHT22;14238;49.496;8.154;2024-01-07T08:32:27;3.40;99.90
26595;DHT22;14238;49.496;8.154;2024-01-07T08:34:52;3.30;99.90
26595;DHT22;14238;49.496;8.154;2024-01-07T08:37:18;3.30;99.90
26595;DHT22;14238;49.496;8.154;2024-01-07T08:39:43;3.40;99.90
26595;DHT22;14238;49.496;8.154;2024-01-07T08:42:09;3.30;99.90
26595;DHT22;14238;49.496;8.154;2024-01-07T08:44:35;3.30;99.90
26595;DHT22;14238;49.496;8.154;2024-01-07T08:47:00;3.30;99.90
26595;DHT22;14238;49.496;8.154;2024-01-07T08:49:28;3.30;99.90
26595;DHT22;14238;49.496;8.154;2024-01-07T08:51:54;3.30;99.90
26595;DHT22;14238;49.496;8.154;2024-01-07T08:54:21;3.20;99.90
26595;DHT22;14238;49.496;8.154;2024-01-07T08:56:47;3.20;99.90
26595;DHT22;14238;49.496;8.154;2024-01-07T08:59:12;3.20;99.90
26595;DHT22;14238;49.496;8.154;2024-01-07T09:01:38;3.20;99.90
26595;DHT22;14238;49.496;8.154;2024-01-07T09:04:03;3.10;99.90
26595;DHT22;14238;49.496;8.154;2024-01-07T09:06:29;3.10;99.90
26595;DHT22;14238;49.496;8.154;2024-01-07T09:08:54;3.20;99.90
26595;DHT22;14238;49.496;8.154;2024-01-07T09:11:21;3.10;99.90
26595;DHT22;14238;49.496;8.154;2024-01-07T09:13:47;3.10;99.90
26595;DHT22;14238;49.496;8.154;2024-01-07T09:16:16;3.10;99.90
26595;DHT22;14238;49.496;8.154;2024-01-07T09:18:41;3.10;99.90
26595;DHT22;14238;49.496;8.154;2024-01-07T09:21:09;3.10;99.90
26595;DHT22;14238;49.496;8.154;2024-01-07T09:23:34;3.10;99.90
26595;DHT22;14238;49.496;8.154;2024-01-07T09:26:01;3.10;99.90
26595;DHT22;14238;49.496;8.154;2024-01-07T09:28:27;3.10;99.90
26595;DHT22;14238;49.496;8.154;2024-01-07T09:30:52;3.10;99.90
26595;DHT22;14238;49.496;8.154;2024-01-07T09:33:18;3.00;99.90
26595;DHT22;14238;49.496;8.154;2024-01-07T09:35:45;3.00;99.90
26595;DHT22;14238;49.496;8.154;2024-01-07T09:38:10;3.00;99.90
26595;DHT22;14238;49.496;8.154;2024-01-07T09:40:38;3.00;99.90
26595;DHT22;14238;49.496;8.154;2024-01-07T09:43:04;3.00;99.90
26595;DHT22;14238;49.496;8.154;2024-01-07T09:45:30;3.00;99.90
26595;DHT22;14238;49.496;8.154;2024-01-07T09:47:56;3.00;99.90
26595;DHT22;14238;49.496;8.154;2024-01-07T09:50:22;3.00;99.90
26595;DHT22;14238;49.496;8.154;2024-01-07T09:52:48;3.00;99.90
26595;DHT22;14238;49.496;8.154;2024-01-07T09:55:22;3.00;99.90
26595;DHT22;14238;49.496;8.154;2024-01-07T09:57:51;3.00;99.90
26595;DHT22;14238;49.496;8.154;2024-01-07T10:00:17;3.00;99.90
26595;DHT22;14238;49.496;8.154;2024-01-07T10:02:43;2.90;99.90
26595;DHT22;14238;49.496;8.154;2024-01-07T10:05:08;2.80;99.90
26595;DHT22;14238;49.496;8.154;2024-01-07T10:07:34;2.80;99.90
26595;DHT22;14238;49.496;8.154;2024-01-07T10:10:19;2.80;99.90
26595;DHT22;14238;49.496;8.154;2024-01-07T10:12:45;2.80;99.90
26595;DHT22;14238;49.496;8.154;2024-01-07T10:15:14;2.80;99.90
26595;DHT22;14238;49.496;8.154;2024-01-07T10:17:41;2.80;99.90
26595;DHT22;14238;49.496;8.154;2024-01-07T10:20:11;2.70;99.90
26595;DHT22;14238;49.496;8.154;2024-01-07T10:22:37;2.70;99.90
26595;DHT22;14238;49.496;8.154;2024-01-07T10:25:06;2.70;99.90
26595;DHT22;14238;49.496;8.154;2024-01-07T10:27:35;2.80;99.90
26595;DHT22;14238;49.496;8.154;2024-01-07T10:30:02;2.70;99.90
26595;DHT22;14238;49.496;8.154;2024-01-07T10:32:28;2.70;99.90
26595;DHT22;14238;49.496;8.154;2024-01-07T10:35:01;2.70;99.90
26595;DHT22;14238;49.496;8.154;2024-01-07T10:37:28;2.70;99.90
26595;DHT22;14238;49.496;8.154;2024-01-07T10:39:56;2.70;99.90
26595;DHT22;14238;49.496;8.154;2024-01-07T10:42:23;2.70;99.90
26595;DHT22;14238;49.496;8.154;2024-01-07T10:44:49;2.70;99.90
26595;DHT22;14238;49.496;8.154;2024-01-07T10:47:16;2.60;99.90
26595;DHT22;14238;49.496;8.154;2024-01-07T10:49:45;2.70;99.90
26595;DHT22;14238;49.496;8.154;2024-01-07T10:52:12;2.60;99.90
26595;DHT22;14238;49.496;8.154;2024-01-07T10:54:39;2.70;99.90
26595;DHT22;14238;49.496;8.154;2024-01-07T10:57:42;2.70;99.90
26595;DHT22;14238;49.496;8.154;2024-01-07T11:00:09;2.70;99.90
26595;DHT22;14238;49.496;8.154;2024-01-07T11:02:46;2.70;99.90
26595;DHT22;14238;49.496;8.154;2024-01-07T11:05:47;2.60;99.90
26595;DHT22;14238;49.496;8.154;2024-01-07T11:10:57;2.70;99.90
26595;DHT22;14238;49.496;8.154;2024-01-07T11:13:34;2.60;99.90
26595;DHT22;14238;49.496;8.154;2024-01-07T11:16:02;2.60;99.90
26595;DHT22;14238;49.496;8.154;2024-01-07T11:18:28;2.60;99.90
26595;DHT22;14238;49.496;8.154;2024-01-07T11:21:00;2.60;99.90
26595;DHT22;14238;49.496;8.154;2024-01-07T11:23:31;2.60;99.90
26595;DHT22;14238;49.496;8.154;2024-01-07T11:26:03;2.60;99.90
26595;DHT22;14238;49.496;8.154;2024-01-07T11:28:50;2.60;99.90
26595;DHT22;14238;49.496;8.154;2024-01-07T11:31:17;2.60;99.90
26595;DHT22;14238;49.496;8.154;2024-01-07T11:33:44;2.60;99.90
26595;DHT22;14238;49.496;8.154;2024-01-07T11:36:12;2.60;99.90
26595;DHT22;14238;49.496;8.154;2024-01-07T11:38:40;2.60;99.90
26595;DHT22;14238;49.496;8.154;2024-01-07T11:41:07;2.60;99.90
26595;DHT22;14238;49.496;8.154;2024-01-07T11:43:32;2.60;99.90
26595;DHT22;14238;49.496;8.154;2024-01-07T11:46:00;2.60;99.90
26595;DHT22;14238;49.496;8.154;2024-01-07T11:48:25;2.60;99.90
26595;DHT22;14238;49.496;8.154;2024-01-07T11:50:51;2.60;99.90
26595;DHT22;14238;49.496;8.154;2024-01-07T11:53:17;2.50;99.90
26595;DHT22;14238;49.496;8.154;2024-01-07T11:55:42;2.50;99.90
26595;DHT22;14238;49.496;8.154;2024-01-07T11:58:08;2.50;99.90
26595;DHT22;14238;49.496;8.154;2024-01-07T12:00:34;2.50;99.90
26595;DHT22;14238;49.496;8.154;2024-01-07T12:03:00;2.50;99.90
26595;DHT22;14238;49.496;8.154;2024-01-07T12:05:27;2.50;99.90
26595;DHT22;14238;49.496;8.154;2024-01-07T12:07:53;2.50;99.90
26595;DHT22;14238;49.496;8.154;2024-01-07T12:10:19;2.50;99.90
26595;DHT22;14238;49.496;8.154;2024-01-07T12:12:44;2.50;99.90
26595;DHT22;14238;49.496;8.154;2024-01-07T12:15:11;2.50;99.90
26595;DHT22;14238;49.496;8.154;2024-01-07T12:17:40;2.50;99.90
26595;DHT22;14238;49.496;8.154;2024-01-07T12:20:07;2.50;99.90
26595;DHT22;14238;49.496;8.154;2024-01-07T12:22:37;2.50;99.90
26595;DHT22;14238;49.496;8.154;2024-01-07T12:25:04;2.50;99.90
26595;DHT22;14238;49.496;8.154;2024-01-07T12:27:30;2.50;99.90
26595;DHT22;14238;49.496;8.154;2024-01-07T12:29:56;2.60;99.90
26595;DHT22;14238;49.496;8.154;2024-01-07T12:32:22;2.60;99.90
26595;DHT22;14238;49.496;8.154;2024-01-07T12:34:48;2.70;99.90
26595;DHT22;14238;49.496;8.154;2024-01-07T12:37:14;2.60;99.90
26595;DHT22;14238;49.496;8.154;2024-01-07T12:39:40;2.70;99.90
26595;DHT22;14238;49.496;8.154;2024-01-07T12:42:06;2.60;99.90
26595;DHT22;14238;49.496;8.154;2024-01-07T12:44:33;2.60;99.90
26595;DHT22;14238;49.496;8.154;2024-01-07T12:46:58;2.60;99.90
26595;DHT22;14238;49.496;8.154;2024-01-07T12:49:24;2.60;99.90
26595;DHT22;14238;49.496;8.154;2024-01-07T12:51:49;2.50;99.90
26595;DHT22;14238;49.496;8.154;2024-01-07T12:54:15;2.50;99.90
26595;DHT22;14238;49.496;8.154;2024-01-07T12:56:41;2.50;99.90
26595;DHT22;14238;49.496;8.154;2024-01-07T12:59:07;2.50;99.90
26595;DHT22;14238;49.496;8.154;2024-01-07T13:01:33;2.50;99.90
26595;DHT22;14238;49.496;8.154;2024-01-07T13:04:00;2.40;99.90
26595;DHT22;14238;49.496;8.154;2024-01-07T13:06:25;2.40;99.90
26595;DHT22;14238;49.496;8.154;2024-01-07T13:08:51;2.50;99.90
26595;DHT22;14238;49.496;8.154;2024-01-07T13:11:17;2.50;99.90
26595;DHT22;14238;49.496;8.154;2024-01-07T13:13:42;2.50;99.90
26595;DHT22;14238;49.496;8.154;2024-01-07T13:16:08;2.50;99.90
26595;DHT22;14238;49.496;8.154;2024-01-07T13:18:33;2.40;99.90
26595;DHT22;14238;49.496;8.154;2024-01-07T13:20:59;2.40;99.90
26595;DHT22;14238;49.496;8.154;2024-01-07T13:23:24;2.40;99.90
26595;DHT22;14238;49.496;8.154;2024-01-07T13:25:51;2.30;99.90
26595;DHT22;14238;49.496;8.154;2024-01-07T13:28:17;2.30;99.90
26595;DHT22;14238;49.496;8.154;2024-01-07T13:30:42;2.30;99.90
26595;DHT22;14238;49.496;8.154;2024-01-07T13:33:08;2.30;99.90
26595;DHT22;14238;49.496;8.154;2024-01-07T13:35:33;2.20;99.90
26595;DHT22;14238;49.496;8.154;2024-01-07T13:37:59;2.20;99.90
26595;DHT22;14238;49.496;8.154;2024-01-07T13:40:25;2.20;99.90
26595;DHT22;14238;49.496;8.154;2024-01-07T13:42:50;2.20;99.90
26595;DHT22;14238;49.496;8.154;2024-01-07T13:45:18;2.20;99.90
26595;DHT22;14238;49.496;8.154;2024-01-07T13:47:48;2.10;99.90
26595;DHT22;14238;49.496;8.154;2024-01-07T13:50:14;2.30;99.90
26595;DHT22;14238;49.496;8.154;2024-01-07T13:52:39;2.20;99.90
26595;DHT22;14238;49.496;8.154;2024-01-07T13:55:06;2.20;99.90
26595;DHT22;14238;49.496;8.154;2024-01-07T13:57:35;2.20;99.90
26595;DHT22;14238;49.496;8.154;2024-01-07T14:00:01;2.10;99.90
26595;DHT22;14238;49.496;8.154;2024-01-07T14:02:33;2.10;99.90
26595;DHT22;14238;49.496;8.154;2024-01-07T14:04:59;2.10;99.90
26595;DHT22;14238;49.496;8.154;2024-01-07T14:07:24;2.00;99.90
26595;DHT22;14238;49.496;8.154;2024-01-07T14:09:51;2.00;99.90
26595;DHT22;14238;49.496;8.154;2024-01-07T14:12:17;2.00;99.90
26595;DHT22;14238;49.496;8.154;2024-01-07T14:14:43;2.00;99.90
26595;DHT22;14238;49.496;8.154;2024-01-07T14:17:08;2.00;99.90
26595;DHT22;14238;49.496;8.154;2024-01-07T14:19:34;1.90;99.90
26595;DHT22;14238;49.496;8.154;2024-01-07T14:22:00;1.90;99.90
26595;DHT22;14238;49.496;8.154;2024-01-07T14:24:26;1.90;99.90
26595;DHT22;14238;49.496;8.154;2024-01-07T14:26:51;1.90;99.90
26595;DHT22;14238;49.496;8.154;2024-01-07T14:29:17;1.90;99.90
26595;DHT22;14238;49.496;8.154;2024-01-07T14:31:43;1.90;99.90
26595;DHT22;14238;49.496;8.154;2024-01-07T14:34:08;1.90;99.90
26595;DHT22;14238;49.496;8.154;2024-01-07T14:36:34;1.90;99.90
26595;DHT22;14238;49.496;8.154;2024-01-07T14:38:59;1.90;99.90
26595;DHT22;14238;49.496;8.154;2024-01-07T14:41:25;1.90;99.90
26595;DHT22;14238;49.496;8.154;2024-01-07T14:43:50;1.80;99.90
26595;DHT22;14238;49.496;8.154;2024-01-07T14:46:16;1.80;99.90
26595;DHT22;14238;49.496;8.154;2024-01-07T14:48:41;1.80;99.90
26595;DHT22;14238;49.496;8.154;2024-01-07T14:51:07;1.80;99.90
26595;DHT22;14238;49.496;8.154;2024-01-07T14:53:32;1.90;99.90
26595;DHT22;14238;49.496;8.154;2024-01-07T14:55:58;1.80;99.90
26595;DHT22;14238;49.496;8.154;2024-01-07T14:58:24;1.80;99.90
26595;DHT22;14238;49.496;8.154;2024-01-07T15:00:50;1.80;99.90
26595;DHT22;14238;49.496;8.154;2024-01-07T15:03:16;1.80;99.90
26595;DHT22;14238;49.496;8.154;2024-01-07T15:05:42;1.80;99.90
26595;DHT22;14238;49.496;8.154;2024-01-07T15:08:08;1.70;99.90
26595;DHT22;14238;49.496;8.154;2024-01-07T15:10:33;1.70;99.90
26595;DHT22;14238;49.496;8.154;2024-01-07T15:12:59;1.60;99.90
26595;DHT22;14238;49.496;8.154;2024-01-07T15:15:25;1.50;99.90
26595;DHT22;14238;49.496;8.154;2024-01-07T15:17:56;1.50;99.90
26595;DHT22;14238;49.496;8.154;2024-01-07T15:20:21;1.40;99.90
26595;DHT22;14238;49.496;8.154;2024-01-07T15:22:47;1.40;99.90
26595;DHT22;14238;49.496;8.154;2024-01-07T15:25:14;1.30;99.90
26595;DHT22;14238;49.496;8.154;2024-01-07T15:27:40;1.30;99.90
26595;DHT22;14238;49.496;8.154;2024-01-07T15:30:06;1.40;99.90
26595;DHT22;14238;49.496;8.154;2024-01-07T15:32:32;1.30;99.90
26595;DHT22;14238;49.496;8.154;2024-01-07T15:34:58;1.30;99.90
26595;DHT22;14238;49.496;8.154;2024-01-07T15:37:24;1.30;99.90
26595;DHT22;14238;49.496;8.154;2024-01-07T15:39:49;1.20;99.90
26595;DHT22;14238;49.496;8.154;2024-01-07T15:42:16;1.20;99.90
26595;DHT22;14238;49.496;8.154;2024-01-07T15:44:42;1.20;99.90
26595;DHT22;14238;49.496;8.154;2024-01-07T15:47:09;1.10;99.90
26595;DHT22;14238;49.496;8.154;2024-01-07T15:49:35;1.10;99.90
26595;DHT22;14238;49.496;8.154;2024-01-07T15:52:00;1.00;99.90
26595;DHT22;14238;49.496;8.154;2024-01-07T15:54:26;1.00;99.90
26595;DHT22;14238;49.496;8.154;2024-01-07T15:56:51;1.00;99.90
26595;DHT22;14238;49.496;8.154;2024-01-07T15:59:17;0.90;99.90
26595;DHT22;14238;49.496;8.154;2024-01-07T16:01:47;0.90;99.90
26595;DHT22;14238;49.496;8.154;2024-01-07T16:04:12;0.90;99.90
26595;DHT22;14238;49.496;8.154;2024-01-07T16:06:42;0.90;99.90
26595;DHT22;14238;49.496;8.154;2024-01-07T16:09:11;0.80;99.90
26595;DHT22;14238;49.496;8.154;2024-01-07T16:11:37;0.80;99.90
26595;DHT22;14238;49.496;8.154;2024-01-07T16:14:03;0.70;99.90
26595;DHT22;14238;49.496;8.154;2024-01-07T16:16:28;0.80;99.90
26595;DHT22;14238;49.496;8.154;2024-01-07T16:18:54;0.70;99.90